Time;durP1;ratioP1;P1;durP2;ratioP2;P2;SDS_P1;SDS_P2;PMS_P1;PMS_P2;Temp;Humidity;BMP_temperature;BMP_pressure;BME280_temperature;BME280_humidity;BME280_pressure;Samples;Min_cycle;Max_cycle;Signal;HPM_P1;HPM_P2
2022/12/21 00:02:03;;;;;;;1999.90;999.90;;;14.20;99.90;;;;;;5032087;28;20049;-81
2022/12/21 00:04:28;;;;;;;1999.90;999.90;;;14.30;99.90;;;;;;5031896;28;20052;-81
2022/12/21 00:06:54;;;;;;;1999.90;999.90;;;14.20;99.90;;;;;;5013986;28;20119;-81
2022/12/21 00:09:20;;;;;;;1999.90;999.90;;;14.20;99.90;;;;;;5015116;28;20056;-81
2022/12/21 00:11:46;;;;;;;1999.90;999.90;;;13.40;99.90;;;;;;5031850;28;20052;-81
2022/12/21 00:14:11;;;;;;;1999.90;999.90;;;14.00;99.90;;;;;;5030415;28;20045;-81
2022/12/21 00:16:39;;;;;;;1999.90;999.90;;;13.80;99.90;;;;;;5031208;28;20441;-81
2022/12/21 00:19:05;;;;;;;1999.90;999.90;;;14.20;99.90;;;;;;5032788;28;20060;-81
2022/12/21 00:21:33;;;;;;;1999.90;999.90;;;14.20;99.90;;;;;;5031418;28;20050;-81
2022/12/21 00:23:59;;;;;;;1999.90;999.90;;;14.30;99.90;;;;;;5032010;28;20099;-83
2022/12/21 00:26:28;;;;;;;1999.90;999.90;;;14.00;99.90;;;;;;5031320;28;20052;-82
2022/12/21 00:28:55;;;;;;;1999.90;999.90;;;14.20;99.90;;;;;;5030981;28;20053;-82
2022/12/21 00:31:23;;;;;;;1999.90;999.90;;;14.20;99.90;;;;;;5013094;28;20049;-82
2022/12/21 00:33:50;;;;;;;1999.90;999.90;;;14.30;99.90;;;;;;5032549;28;20052;-82
2022/12/21 00:36:18;;;;;;;1999.90;999.90;;;13.40;99.90;;;;;;5013590;28;20046;-82
2022/12/21 00:38:44;;;;;;;;;;;13.40;99.90;;;;;;5012111;28;20060;-82
2022/12/21 00:41:15;;;;;;;1999.90;999.90;;;14.10;99.90;;;;;;5031604;28;19921;-90
2022/12/21 00:43:42;;;;;;;1999.90;999.90;;;14.20;99.90;;;;;;5032481;28;20069;-82
2022/12/21 00:46:20;;;;;;;1999.90;999.90;;;13.70;99.90;;;;;;5013056;28;20567;-82
2022/12/21 00:48:46;;;;;;;1999.90;999.90;;;13.30;99.90;;;;;;4998417;28;20053;-83
2022/12/21 00:51:18;;;;;;;1999.90;999.90;;;13.30;99.90;;;;;;5031700;28;20076;-85
2022/12/21 00:53:43;;;;;;;1999.90;999.90;;;13.70;99.90;;;;;;5032283;28;20517;-82
2022/12/21 00:56:10;;;;;;;1999.90;999.90;;;14.10;99.90;;;;;;5030717;28;20125;-87
2022/12/21 00:58:37;;;;;;;1999.90;999.90;;;14.10;99.90;;;;;;5012502;28;20129;-82
2022/12/21 01:01:13;;;;;;;1999.90;999.90;;;14.10;99.90;;;;;;5026640;28;20048;-82
2022/12/21 01:03:40;;;;;;;1999.90;999.90;;;13.50;99.90;;;;;;5031034;28;20045;-82
2022/12/21 01:06:06;;;;;;;1999.90;999.90;;;13.60;99.90;;;;;;5031533;28;20041;-81
2022/12/21 01:08:32;;;;;;;1999.90;999.90;;;13.30;99.90;;;;;;5031381;28;20103;-82
2022/12/21 01:11:02;;;;;;;1999.90;999.90;;;13.40;99.90;;;;;;5014432;28;20505;-81
2022/12/21 01:13:29;;;;;;;1999.90;999.90;;;13.40;99.90;;;;;;5035941;28;20049;-81
2022/12/21 01:15:55;;;;;;;1999.90;999.90;;;13.30;99.90;;;;;;5035696;28;20083;-81
2022/12/21 01:18:21;;;;;;;1999.90;999.90;;;14.10;99.90;;;;;;4999096;28;20505;-80
2022/12/21 01:20:51;;;;;;;1999.90;999.90;;;14.00;99.90;;;;;;5036024;28;20048;-81
2022/12/21 01:23:18;;;;;;;1999.90;999.90;;;14.10;99.90;;;;;;5032437;28;20045;-85
2022/12/21 01:25:45;;;;;;;1999.90;999.90;;;13.70;99.90;;;;;;5016846;28;20073;-80
2022/12/21 01:28:12;;;;;;;1999.90;999.90;;;13.50;99.90;;;;;;5034623;28;20045;-81
2022/12/21 01:30:41;;;;;;;1999.90;999.90;;;13.50;99.90;;;;;;5033767;28;20148;-81
2022/12/21 01:33:16;;;;;;;1999.90;999.90;;;13.20;99.90;;;;;;5016257;28;20037;-83
2022/12/21 01:35:42;;;;;;;1999.90;999.90;;;13.10;99.90;;;;;;5033330;28;20065;-81
2022/12/21 01:38:09;;;;;;;1999.90;999.90;;;13.50;99.90;;;;;;5033611;28;20486;-81
2022/12/21 01:40:35;;;;;;;1999.90;999.90;;;13.10;99.90;;;;;;5033740;28;20053;-80
2022/12/21 01:43:01;;;;;;;1999.90;999.90;;;13.20;99.90;;;;;;5035413;28;20056;-80
2022/12/21 01:45:30;;;;;;;1999.90;999.90;;;13.20;99.90;;;;;;5034436;28;20064;-81
2022/12/21 01:48:01;;;;;;;1999.90;999.90;;;13.50;99.90;;;;;;5017190;28;20056;-81
2022/12/21 01:50:34;;;;;;;1999.90;999.90;;;13.90;99.90;;;;;;5016892;28;20091;-81
2022/12/21 01:53:07;;;;;;;1999.90;999.90;;;13.90;99.90;;;;;;5035087;28;20087;-81
2022/12/21 01:55:33;;;;;;;1999.90;999.90;;;13.60;99.90;;;;;;5014701;28;20049;-82
2022/12/21 01:58:01;;;;;;;1999.90;999.90;;;13.20;99.90;;;;;;5034855;28;20099;-88
2022/12/21 02:00:26;;;;;;;1999.90;999.90;;;13.90;99.90;;;;;;5033759;28;20049;-81
2022/12/21 02:02:56;;;;;;;1999.90;999.90;;;13.20;99.90;;;;;;5016943;28;20375;-81
2022/12/21 02:05:35;;;;;;;1999.90;999.90;;;13.20;99.90;;;;;;5016765;28;20038;-81
2022/12/21 02:08:03;;;;;;;1999.90;999.90;;;13.90;99.90;;;;;;4998021;28;20399;-80
2022/12/21 02:10:29;;;;;;;1999.90;999.90;;;13.70;99.90;;;;;;5028447;28;20069;-80
2022/12/21 02:13:02;;;;;;;1999.90;999.90;;;13.10;99.90;;;;;;5034989;28;20418;-80
2022/12/21 02:15:46;;;;;;;1999.90;999.90;;;13.80;99.90;;;;;;5017375;28;20043;-81
2022/12/21 02:18:23;;;;;;;1999.90;999.90;;;13.70;99.90;;;;;;5034465;28;20096;-81
2022/12/21 02:20:52;;;;;;;1999.90;999.90;;;13.20;99.90;;;;;;5033893;28;20132;-83
2022/12/21 02:23:39;;;;;;;1999.90;999.90;;;13.60;99.90;;;;;;5034752;28;20134;-80
2022/12/21 02:26:14;;;;;;;1999.90;999.90;;;13.00;99.90;;;;;;5016766;28;20049;-80
2022/12/21 02:29:16;;;;;;;1999.90;999.90;;;13.80;99.90;;;;;;5034604;28;20486;-79
2022/12/21 02:32:16;;;;;;;1999.90;999.90;;;13.00;99.90;;;;;;5032741;28;20057;-79
2022/12/21 02:35:10;;;;;;;1999.90;999.90;;;13.70;99.90;;;;;;4966643;28;20474;-80
2022/12/21 02:38:01;;;;;;;1999.90;999.90;;;13.80;99.90;;;;;;5031800;28;20128;-80
2022/12/21 02:40:42;;;;;;;1999.90;999.90;;;13.60;99.90;;;;;;5033299;28;20080;-80
2022/12/21 02:46:16;;;;;;;1999.90;999.90;;;13.20;99.90;;;;;;5032978;28;20276;-81
2022/12/21 02:49:05;;;;;;;1999.90;999.90;;;12.90;99.90;;;;;;5034163;28;20398;-80
2022/12/21 02:51:43;;;;;;;1999.90;999.90;;;13.40;99.90;;;;;;5032984;28;20049;-81
2022/12/21 02:54:10;;;;;;;1999.90;999.90;;;13.70;99.90;;;;;;5032912;28;20514;-80
2022/12/21 02:56:36;;;;;;;1999.90;999.90;;;13.00;99.90;;;;;;5033872;28;20050;-81
2022/12/21 02:59:03;;;;;;;1999.90;999.90;;;13.70;99.90;;;;;;5034320;28;20375;-80
2022/12/21 03:01:46;;;;;;;1999.90;999.90;;;13.20;99.90;;;;;;5033489;28;20056;-82
2022/12/21 03:04:37;;;;;;;1999.90;999.90;;;13.00;99.90;;;;;;5007649;28;20361;-81
2022/12/21 03:07:11;;;;;;;1999.90;999.90;;;12.90;99.90;;;;;;5033558;28;20069;-82
2022/12/21 03:09:59;;;;;;;1999.90;999.90;;;13.60;99.90;;;;;;5032474;28;20502;-81
2022/12/21 03:12:49;;;;;;;1999.90;999.90;;;12.90;99.90;;;;;;5033197;28;20049;-82
2022/12/21 03:15:26;;;;;;;1999.90;999.90;;;12.90;99.90;;;;;;5015505;28;20250;-81
2022/12/21 03:18:05;;;;;;;1999.90;999.90;;;12.90;99.90;;;;;;5033120;28;20171;-82
2022/12/21 03:20:56;;;;;;;1999.90;999.90;;;13.60;99.90;;;;;;5034123;28;20060;-82
2022/12/21 03:23:39;;;;;;;1999.90;999.90;;;12.80;99.90;;;;;;5015023;28;20049;-82
2022/12/21 03:26:14;;;;;;;1999.90;999.90;;;13.10;99.90;;;;;;5014261;28;20068;-82
2022/12/21 03:28:42;;;;;;;1999.90;999.90;;;12.70;99.90;;;;;;5030350;28;20052;-81
2022/12/21 03:31:15;;;;;;;1999.90;999.90;;;13.40;99.90;;;;;;5015707;28;20045;-82
2022/12/21 03:33:47;;;;;;;1999.90;999.90;;;12.70;99.90;;;;;;5030550;28;20402;-86
2022/12/21 03:36:32;;;;;;;1999.90;999.90;;;13.70;99.90;;;;;;5033822;28;20125;-83
2022/12/21 03:39:07;;;;;;;1999.90;999.90;;;13.40;99.90;;;;;;5032761;28;20046;-82
2022/12/21 03:42:02;;;;;;;1999.90;999.90;;;13.20;99.90;;;;;;5032193;28;20209;-83
2022/12/21 03:44:34;;;;;;;1999.90;999.90;;;13.10;99.90;;;;;;4993572;28;20498;-82
2022/12/21 03:47:06;;;;;;;1999.90;999.90;;;13.10;99.90;;;;;;4997991;28;20045;-81
2022/12/21 03:49:54;;;;;;;1999.90;999.90;;;13.00;99.90;;;;;;5028219;28;20052;-82
2022/12/21 03:52:24;;;;;;;1999.90;999.90;;;12.40;99.90;;;;;;5014727;28;20179;-82
2022/12/21 03:55:13;;;;;;;1999.90;999.90;;;13.10;99.90;;;;;;5030280;28;20050;-84
2022/12/21 03:57:39;;;;;;;;;;;12.70;99.90;;;;;;5015945;28;20072;-82
2022/12/21 04:00:06;;;;;;;1999.90;999.90;;;12.70;99.90;;;;;;5033173;28;19994;-82
2022/12/21 04:02:55;;;;;;;1999.90;999.90;;;12.40;99.90;;;;;;5032467;28;20045;-82
2022/12/21 04:05:32;;;;;;;1999.90;999.90;;;12.60;99.90;;;;;;5014689;28;20045;-83
2022/12/21 04:07:59;;;;;;;1999.90;999.90;;;12.50;99.90;;;;;;5033080;28;20050;-83
2022/12/21 04:10:26;;;;;;;1999.90;999.90;;;13.10;99.90;;;;;;5031846;28;20052;-81
2022/12/21 04:12:51;;;;;;;1999.90;999.90;;;12.70;99.90;;;;;;5032813;28;20045;-81
2022/12/21 04:15:24;;;;;;;1999.90;999.90;;;13.00;99.90;;;;;;5031464;28;20476;-82
2022/12/21 04:17:52;;;;;;;1999.90;999.90;;;12.40;99.90;;;;;;5014111;28;20052;-83
2022/12/21 04:20:20;;;;;;;1999.90;999.90;;;13.30;99.90;;;;;;5032288;28;20117;-82
2022/12/21 04:28:22;;;;;;;1999.90;999.90;;;13.10;99.90;;;;;;5033013;28;20253;-81
2022/12/21 04:30:48;;;;;;;1999.90;999.90;;;12.40;99.90;;;;;;5032915;28;20049;-81
2022/12/21 04:33:17;;;;;;;1999.90;999.90;;;12.50;99.90;;;;;;5031884;28;20513;-82
2022/12/21 04:38:30;;;;;;;1999.90;999.90;;;12.90;99.90;;;;;;5032712;28;20092;-80
2022/12/21 04:40:57;;;;;;;1999.90;999.90;;;12.60;99.90;;;;;;5032375;28;20119;-83
2022/12/21 04:43:23;;;;;;;1999.90;999.90;;;12.90;99.90;;;;;;5015362;28;20045;-83
2022/12/21 04:45:49;;;;;;;1999.90;999.90;;;13.10;99.90;;;;;;5029806;28;20403;-86
2022/12/21 04:48:16;;;;;;;1999.90;999.90;;;13.10;99.90;;;;;;5032421;28;20048;-82
2022/12/21 04:50:42;;;;;;;1999.90;999.90;;;12.20;99.90;;;;;;5014694;28;20056;-83
2022/12/21 04:53:08;;;;;;;1999.90;999.90;;;12.80;99.90;;;;;;5014301;28;20505;-83
2022/12/21 04:55:34;;;;;;;1999.90;999.90;;;12.30;99.90;;;;;;5012096;28;20136;-85
2022/12/21 04:57:59;;;;;;;1999.90;999.90;;;12.20;99.90;;;;;;5030277;28;20133;-83
2022/12/21 05:00:25;;;;;;;1999.90;999.90;;;12.80;99.90;;;;;;5013619;28;20045;-82
2022/12/21 05:02:51;;;;;;;1999.90;999.90;;;12.90;99.90;;;;;;5026995;28;20038;-83
2022/12/21 05:05:16;;;;;;;1999.90;999.90;;;12.20;99.90;;;;;;5026191;28;21132;-82
2022/12/21 05:07:42;;;;;;;1999.90;999.90;;;12.20;99.90;;;;;;5019591;28;20042;-82
2022/12/21 05:10:09;;;;;;;1999.90;999.90;;;12.40;99.90;;;;;;5011551;28;20052;-83
2022/12/21 05:12:34;;;;;;;1999.90;999.90;;;12.30;99.90;;;;;;5013692;28;20045;-82
2022/12/21 05:15:00;;;;;;;1999.90;999.90;;;12.60;99.90;;;;;;5013555;28;20068;-82
2022/12/21 05:17:26;;;;;;;1999.90;999.90;;;12.40;99.90;;;;;;5012937;28;20049;-81
2022/12/21 05:19:51;;;;;;;1999.90;999.90;;;12.30;99.90;;;;;;5031718;28;20401;-82
2022/12/21 05:22:20;;;;;;;1999.90;999.90;;;12.40;99.90;;;;;;5015029;28;20046;-81
2022/12/21 05:24:46;;;;;;;1999.90;999.90;;;12.40;99.90;;;;;;5015393;28;20045;-81
2022/12/21 05:27:12;;;;;;;1999.90;999.90;;;11.80;99.90;;;;;;5009873;28;20669;-81
2022/12/21 05:29:38;;;;;;;1999.90;999.90;;;12.30;99.90;;;;;;5031086;28;20049;-84
2022/12/21 05:32:04;;;;;;;1999.90;999.90;;;12.50;99.90;;;;;;5026349;28;20041;-82
2022/12/21 05:34:30;;;;;;;1999.90;999.90;;;12.60;99.90;;;;;;5021115;28;20057;-82
2022/12/21 05:36:55;;;;;;;1999.90;999.90;;;13.00;99.90;;;;;;5027076;28;20042;-83
2022/12/21 05:39:21;;;;;;;1999.90;999.90;;;13.10;99.90;;;;;;4994581;28;20043;-83
2022/12/21 05:41:47;;;;;;;1999.90;999.90;;;13.20;99.90;;;;;;5030175;28;20112;-82
2022/12/21 05:44:13;;;;;;;1999.90;999.90;;;13.00;99.90;;;;;;5008157;28;20121;-83
2022/12/21 05:46:38;;;;;;;1999.90;999.90;;;12.20;99.90;;;;;;5018724;28;20033;-84
2022/12/21 05:49:04;;;;;;;1999.90;999.90;;;13.00;99.90;;;;;;5030474;28;20096;-82
2022/12/21 05:51:30;;;;;;;1999.90;999.90;;;12.70;99.90;;;;;;5030481;28;20463;-83
2022/12/21 05:53:56;;;;;;;1999.90;999.90;;;12.50;99.90;;;;;;5028144;28;20116;-83
2022/12/21 05:56:22;;;;;;;1999.90;999.90;;;12.50;99.90;;;;;;5014178;28;20493;-83
2022/12/21 05:58:47;;;;;;;1999.90;999.90;;;12.90;99.90;;;;;;5014446;28;20562;-81
2022/12/21 06:01:13;;;;;;;1999.90;999.90;;;12.50;99.90;;;;;;5009987;28;20132;-82
2022/12/21 06:03:45;;;;;;;1999.90;999.90;;;13.10;99.90;;;;;;5018331;28;20052;-81
2022/12/21 06:06:14;;;;;;;1999.90;999.90;;;13.00;99.90;;;;;;5001588;28;20045;-82
2022/12/21 06:08:40;;;;;;;1999.90;999.90;;;12.30;99.90;;;;;;5027494;28;20474;-83
2022/12/21 06:11:08;;;;;;;1999.90;999.90;;;12.50;99.90;;;;;;5013757;28;20041;-88
2022/12/21 06:13:35;;;;;;;1999.90;999.90;;;13.00;99.90;;;;;;5016471;28;20064;-83
2022/12/21 06:16:06;;;;;;;1999.90;999.90;;;13.00;99.90;;;;;;5032579;28;20057;-82
2022/12/21 06:18:32;;;;;;;1999.90;999.90;;;12.50;99.90;;;;;;5032677;28;20543;-84
2022/12/21 06:20:57;;;;;;;1999.90;999.90;;;12.70;99.90;;;;;;5033570;28;20128;-83
2022/12/21 06:23:24;;;;;;;1999.90;999.90;;;13.00;99.90;;;;;;5031826;28;20095;-83
2022/12/21 06:25:54;;;;;;;1999.90;999.90;;;13.00;99.90;;;;;;5011438;28;20124;-83
2022/12/21 06:28:20;;;;;;;1999.90;999.90;;;12.30;99.90;;;;;;5014411;28;20049;-83
2022/12/21 06:30:46;;;;;;;1999.90;999.90;;;13.00;99.90;;;;;;5031678;28;20053;-83
2022/12/21 06:33:12;;;;;;;1999.90;999.90;;;12.50;99.90;;;;;;5031360;28;20037;-83
2022/12/21 06:35:37;;;;;;;1999.90;999.90;;;12.30;99.90;;;;;;4994949;28;20107;-83
2022/12/21 06:38:03;;;;;;;1999.90;999.90;;;13.10;99.90;;;;;;5030918;28;20045;-86
2022/12/21 06:40:29;;;;;;;1999.90;999.90;;;13.00;99.90;;;;;;5007674;28;20038;-83
2022/12/21 06:42:54;;;;;;;1999.90;999.90;;;12.40;99.90;;;;;;5026746;28;20379;-85
2022/12/21 06:45:20;;;;;;;1999.90;999.90;;;12.30;99.90;;;;;;5031183;28;20398;-81
2022/12/21 06:47:46;;;;;;;1999.90;999.90;;;12.60;99.90;;;;;;5015099;28;20120;-81
2022/12/21 06:50:11;;;;;;;1999.90;999.90;;;12.90;99.90;;;;;;5022881;28;20049;-82
2022/12/21 06:52:37;;;;;;;1999.90;999.90;;;12.30;99.90;;;;;;5032248;28;20045;-83
2022/12/21 06:55:04;;;;;;;1999.90;999.90;;;13.00;99.90;;;;;;5031917;28;20049;-84
2022/12/21 06:57:33;;;;;;;1999.90;999.90;;;13.10;99.90;;;;;;5032086;28;20053;-82
2022/12/21 06:59:59;;;;;;;1999.90;999.90;;;12.90;99.90;;;;;;5015972;28;20041;-82
2022/12/21 07:02:25;;;;;;;1999.90;999.90;;;12.70;99.90;;;;;;5027711;28;20513;-83
2022/12/21 07:04:52;;;;;;;1999.90;999.90;;;12.50;99.90;;;;;;5027967;28;20047;-83
2022/12/21 07:07:18;;;;;;;1999.90;999.90;;;13.10;99.90;;;;;;4999067;28;20049;-82
2022/12/21 07:09:44;;;;;;;1999.90;999.90;;;12.90;99.90;;;;;;5033685;28;20052;-82
2022/12/21 07:12:09;;;;;;;1999.90;999.90;;;12.80;99.90;;;;;;5013844;28;20045;-82
2022/12/21 07:14:35;;;;;;;1999.90;999.90;;;12.40;99.90;;;;;;5026246;28;20041;-82
2022/12/21 07:17:01;;;;;;;1999.90;999.90;;;13.00;99.90;;;;;;5014118;28;20371;-82
2022/12/21 07:19:29;;;;;;;1999.90;999.90;;;13.10;99.90;;;;;;5016024;28;20049;-84
2022/12/21 07:21:55;;;;;;;1999.90;999.90;;;12.70;99.90;;;;;;4990011;28;20064;-83
2022/12/21 07:24:21;;;;;;;1999.90;999.90;;;13.30;99.90;;;;;;4995897;28;20045;-83
2022/12/21 07:26:46;;;;;;;1999.90;999.90;;;13.30;99.90;;;;;;5022582;28;20029;-78
2022/12/21 07:29:12;;;;;;;1999.90;999.90;;;13.30;99.90;;;;;;5031993;28;20386;-80
2022/12/21 07:31:43;;;;;;;1999.90;999.90;;;13.20;99.90;;;;;;5033047;28;20042;-80
2022/12/21 07:34:09;;;;;;;1999.90;999.90;;;12.50;99.90;;;;;;5015107;28;20048;-91
2022/12/21 07:36:35;;;;;;;1999.90;999.90;;;12.60;99.90;;;;;;5033693;28;20052;-82
2022/12/21 07:39:01;;;;;;;1999.90;999.90;;;12.70;99.90;;;;;;5033222;28;20096;-79
2022/12/21 07:41:26;;;;;;;1999.90;999.90;;;13.40;99.90;;;;;;5032873;28;20049;-79
2022/12/21 07:43:52;;;;;;;1999.90;999.90;;;12.60;99.90;;;;;;5032743;28;20482;-86
2022/12/21 07:46:18;;;;;;;1999.90;999.90;;;13.40;99.90;;;;;;5031252;28;20034;-79
2022/12/21 07:48:44;;;;;;;1999.90;999.90;;;12.90;99.90;;;;;;4998481;28;20402;-80
2022/12/21 07:51:10;;;;;;;1999.90;999.90;;;13.40;99.90;;;;;;5015666;28;20049;-80
2022/12/21 07:53:36;;;;;;;1999.90;999.90;;;12.90;99.90;;;;;;5007684;28;20388;-80
2022/12/21 07:56:10;;;;;;;1999.90;999.90;;;12.90;99.90;;;;;;5024539;28;20046;-79
2022/12/21 07:58:35;;;;;;;1999.90;999.90;;;13.40;99.90;;;;;;4996471;28;20088;-81
2022/12/21 08:01:19;;;;;;;1999.90;999.90;;;13.00;99.90;;;;;;5012968;28;20042;-82
2022/12/21 08:03:46;;;;;;;1999.90;999.90;;;12.60;99.90;;;;;;5026567;28;20529;-81
2022/12/21 08:06:13;;;;;;;1999.90;999.90;;;13.20;99.90;;;;;;5015009;28;20038;-79
2022/12/21 08:08:40;;;;;;;1999.90;999.90;;;13.30;99.90;;;;;;5031658;28;20048;-79
2022/12/21 08:11:11;;;;;;;1999.90;999.90;;;12.70;99.90;;;;;;5032590;28;20057;-79
2022/12/21 08:13:37;;;;;;;1999.90;999.90;;;12.70;99.90;;;;;;5012335;28;20129;-80
2022/12/21 08:16:05;;;;;;;1999.90;999.90;;;13.30;99.90;;;;;;5030361;28;20132;-79
2022/12/21 08:18:32;;;;;;;1999.90;999.90;;;12.60;99.90;;;;;;5030814;28;20390;-80
2022/12/21 08:20:58;;;;;;;1999.90;999.90;;;13.10;99.90;;;;;;5011364;28;20453;-80
2022/12/21 08:23:24;;;;;;;1999.90;999.90;;;13.50;99.90;;;;;;5018072;28;20042;-81
2022/12/21 08:25:50;;;;;;;1999.90;999.90;;;12.70;99.90;;;;;;5018581;28;20034;-82
2022/12/21 08:28:16;;;;;;;1999.90;999.90;;;12.70;99.90;;;;;;5015074;28;20041;-91
2022/12/21 08:30:43;;;;;;;1999.90;999.90;;;12.60;99.90;;;;;;5030613;28;20493;-79
2022/12/21 08:33:09;;;;;;;1999.90;999.90;;;12.80;99.90;;;;;;5008643;28;20053;-81
2022/12/21 08:35:36;;;;;;;1999.90;999.90;;;13.30;99.90;;;;;;5013432;28;20068;-80
2022/12/21 08:38:01;;;;;;;1999.90;999.90;;;13.50;99.90;;;;;;5012583;28;20041;-79
2022/12/21 08:40:27;;;;;;;1999.90;999.90;;;12.80;99.90;;;;;;5014476;28;20398;-80
2022/12/21 08:42:53;;;;;;;1999.90;999.90;;;13.50;99.90;;;;;;5032115;28;20041;-81
2022/12/21 08:45:19;;;;;;;1999.90;999.90;;;13.50;99.90;;;;;;4995461;28;20111;-89
2022/12/21 08:47:47;;;;;;;1999.90;999.90;;;13.50;99.90;;;;;;5024798;28;20052;-79
2022/12/21 08:50:13;;;;;;;1999.90;999.90;;;13.60;99.90;;;;;;5031315;28;20124;-79
2022/12/21 08:52:38;;;;;;;1999.90;999.90;;;13.60;99.90;;;;;;5014279;28;20137;-81
2022/12/21 08:55:04;;;;;;;1999.90;999.90;;;12.90;99.90;;;;;;5017079;28;20053;-80
2022/12/21 08:57:30;;;;;;;1999.90;999.90;;;12.80;99.90;;;;;;5011456;28;20077;-80
2022/12/21 08:59:56;;;;;;;1999.90;999.90;;;13.50;99.90;;;;;;5031363;28;20049;-83
2022/12/21 09:02:21;;;;;;;1999.90;999.90;;;13.70;99.90;;;;;;5029266;28;20041;-90
2022/12/21 09:04:47;;;;;;;1999.90;999.90;;;13.70;99.90;;;;;;5029981;28;20502;-82
2022/12/21 09:07:13;;;;;;;1999.90;999.90;;;13.80;99.90;;;;;;5013327;28;20050;-81
2022/12/21 09:09:38;;;;;;;1999.90;999.90;;;13.80;99.90;;;;;;5030796;28;20494;-80
2022/12/21 09:12:04;;;;;;;1999.90;999.90;;;13.10;99.90;;;;;;5031144;28;20474;-81
2022/12/21 09:14:31;;;;;;;1999.90;999.90;;;13.60;99.90;;;;;;5030986;28;20085;-82
2022/12/21 09:16:57;;;;;;;1999.90;999.90;;;13.80;99.90;;;;;;5031558;28;20056;-81
2022/12/21 09:19:24;;;;;;;1999.90;999.90;;;13.80;99.90;;;;;;5030857;28;20049;-82
2022/12/21 09:21:50;;;;;;;1999.90;999.90;;;13.20;99.90;;;;;;5001355;28;20053;-87
2022/12/21 09:24:16;;;;;;;1999.90;999.90;;;13.20;99.90;;;;;;5012729;28;20049;-81
2022/12/21 09:26:41;;;;;;;1999.90;999.90;;;13.90;99.90;;;;;;5030474;28;20050;-82
2022/12/21 09:29:09;;;;;;;1999.90;999.90;;;13.10;99.90;;;;;;5029448;28;20034;-81
2022/12/21 09:31:35;;;;;;;;;;;13.70;99.90;;;;;;5024807;28;20049;-81
2022/12/21 09:34:01;;;;;;;1999.90;999.90;;;13.10;99.90;;;;;;5017962;28;19928;-82
2022/12/21 09:36:26;;;;;;;1999.90;999.90;;;13.90;99.90;;;;;;5015549;28;20506;-88
2022/12/21 09:38:53;;;;;;;1999.90;999.90;;;14.00;99.90;;;;;;5029217;28;20038;-81
2022/12/21 09:41:27;;;;;;;1999.90;999.90;;;13.90;99.90;;;;;;5034940;28;20052;-82
2022/12/21 09:44:14;;;;;;;1999.90;999.90;;;13.10;99.90;;;;;;5035854;28;20045;-81
2022/12/21 09:46:42;;;;;;;1999.90;999.90;;;13.30;99.90;;;;;;5033288;28;20152;-83
2022/12/21 09:49:15;;;;;;;;;;;13.20;99.90;;;;;;5035152;28;20053;-84
2022/12/21 09:51:49;;;;;;;1999.90;999.90;;;14.10;99.90;;;;;;5016860;28;19921;-82
2022/12/21 09:54:19;;;;;;;1999.90;999.90;;;13.20;99.90;;;;;;5017687;28;20097;-82
2022/12/21 09:56:50;;;;;;;1999.90;999.90;;;13.50;99.90;;;;;;5014583;28;20057;-81
2022/12/21 09:59:19;;;;;;;1999.90;999.90;;;13.10;99.90;;;;;;5035515;28;20049;-81
2022/12/21 10:01:48;;;;;;;1999.90;999.90;;;13.40;99.90;;;;;;5033691;28;20120;-81
2022/12/21 10:04:16;;;;;;;1999.90;999.90;;;13.20;99.90;;;;;;5035111;28;20037;-83
2022/12/21 10:07:07;;;;;;;1999.90;999.90;;;13.00;99.90;;;;;;5016029;28;20049;-82
2022/12/21 10:09:57;;;;;;;1999.90;999.90;;;13.30;99.90;;;;;;5018970;28;20056;-82
2022/12/21 10:12:47;;;;;;;1999.90;999.90;;;12.90;99.90;;;;;;5014720;28;20128;-81
2022/12/21 10:15:39;;;;;;;1999.90;999.90;;;13.80;99.90;;;;;;5021173;28;20044;-81
2022/12/21 10:18:32;;;;;;;1999.90;999.90;;;13.80;99.90;;;;;;5008775;28;20055;-81
2022/12/21 10:21:12;;;;;;;1999.90;999.90;;;13.30;99.90;;;;;;4998659;28;20053;-85
2022/12/21 10:23:50;;;;;;;1999.90;999.90;;;13.90;99.90;;;;;;5033171;28;20106;-82
2022/12/21 10:26:20;;;;;;;1999.90;999.90;;;13.10;99.90;;;;;;5034269;28;20135;-84
2022/12/21 10:29:09;;;;;;;1999.90;999.90;;;13.00;99.90;;;;;;5034090;28;20041;-82
2022/12/21 10:31:45;;;;;;;1999.90;999.90;;;13.00;99.90;;;;;;5027016;28;20470;-82
2022/12/21 10:34:16;;;;;;;1999.90;999.90;;;13.10;99.90;;;;;;5033157;28;20045;-90
2022/12/21 10:36:43;;;;;;;1999.90;999.90;;;13.10;99.90;;;;;;5029511;28;20072;-83
2022/12/21 10:39:16;;;;;;;1999.90;999.90;;;13.80;99.90;;;;;;5032167;28;20037;-82
2022/12/21 10:41:49;;;;;;;1999.90;999.90;;;13.60;99.90;;;;;;5030675;28;20041;-82
2022/12/21 10:44:15;;;;;;;1999.90;999.90;;;13.70;99.90;;;;;;5034604;28;20085;-82
2022/12/21 10:46:41;;;;;;;1999.90;999.90;;;13.00;99.90;;;;;;4998880;28;20077;-82
2022/12/21 10:49:16;;;;;;;1999.90;999.90;;;13.10;99.90;;;;;;5034300;28;20166;-85
2022/12/21 10:51:42;;;;;;;1999.90;999.90;;;14.00;99.90;;;;;;5031573;28;20063;-83
2022/12/21 10:54:09;;;;;;;1999.90;999.90;;;14.00;99.90;;;;;;5014903;28;20434;-83
2022/12/21 10:56:48;;;;;;;1999.90;999.90;;;14.10;99.90;;;;;;5015899;28;20061;-83
2022/12/21 10:59:14;;;;;;;1999.90;999.90;;;13.30;99.90;;;;;;5028880;28;20049;-81
2022/12/21 11:01:40;;;;;;;1999.90;999.90;;;14.00;99.90;;;;;;5032175;28;20665;-82
2022/12/21 11:04:26;;;;;;;1999.90;999.90;;;14.10;99.90;;;;;;5014964;28;20409;-83
2022/12/21 11:07:23;;;;;;;1999.90;999.90;;;13.20;99.90;;;;;;5003853;28;20191;-85
2022/12/21 11:10:00;;;;;;;1999.90;999.90;;;13.70;99.90;;;;;;5028812;28;20045;-82
2022/12/21 11:12:26;;;;;;;1999.90;999.90;;;14.00;99.90;;;;;;5013777;28;20041;-83
2022/12/21 11:14:53;;;;;;;1999.90;999.90;;;13.10;99.90;;;;;;5013888;28;20037;-83
2022/12/21 11:17:29;;;;;;;1999.90;999.90;;;13.10;99.90;;;;;;5028462;28;20599;-82
2022/12/21 11:20:17;;;;;;;1999.90;999.90;;;13.90;99.90;;;;;;5014650;28;20045;-82
2022/12/21 11:22:45;;;;;;;1999.90;999.90;;;13.90;99.90;;;;;;5015174;28;20060;-91
2022/12/21 11:25:21;;;;;;;1999.90;999.90;;;13.10;99.90;;;;;;5015231;28;20072;-83
2022/12/21 11:27:49;;;;;;;1999.90;999.90;;;13.40;99.90;;;;;;4999585;28;20087;-82
2022/12/21 11:30:21;;;;;;;1999.90;999.90;;;13.30;99.90;;;;;;5015601;28;20241;-82
2022/12/21 11:32:49;;;;;;;1999.90;999.90;;;13.40;99.90;;;;;;5032851;28;20041;-82
2022/12/21 11:35:35;;;;;;;1999.90;999.90;;;13.50;99.90;;;;;;5033705;28;20057;-82
2022/12/21 11:38:13;;;;;;;1999.90;999.90;;;13.50;99.90;;;;;;5032126;28;20057;-84
2022/12/21 11:40:54;;;;;;;1999.90;999.90;;;14.00;99.90;;;;;;5015997;28;20483;-83
2022/12/21 11:43:20;;;;;;;1999.90;999.90;;;13.70;99.90;;;;;;5033491;28;20045;-82
2022/12/21 11:46:07;;;;;;;1999.90;999.90;;;13.20;99.90;;;;;;5033193;28;20045;-82
2022/12/21 11:49:09;;;;;;;1999.90;999.90;;;14.20;99.90;;;;;;5032839;28;20073;-82
2022/12/21 11:52:06;;;;;;;1999.90;999.90;;;14.10;99.90;;;;;;5032423;28;20050;-82
2022/12/21 11:54:50;;;;;;;1999.90;999.90;;;14.10;99.90;;;;;;5032461;28;20062;-83
2022/12/21 11:57:23;;;;;;;1999.90;999.90;;;13.60;99.90;;;;;;5032569;28;20486;-82
2022/12/21 12:00:03;;;;;;;1999.90;999.90;;;14.30;99.90;;;;;;5016965;28;20060;-82
2022/12/21 12:02:46;;;;;;;1999.90;999.90;;;13.60;99.90;;;;;;5032606;28;20402;-81
2022/12/21 12:05:53;;;;;;;1999.90;999.90;;;13.50;99.90;;;;;;5033064;28;20409;-82
2022/12/21 12:08:59;;;;;;;1999.90;999.90;;;13.50;99.90;;;;;;4991288;28;20060;-82
2022/12/21 12:11:34;;;;;;;1999.90;999.90;;;13.70;99.90;;;;;;5015662;28;20049;-82
2022/12/21 12:14:42;;;;;;;1999.90;999.90;;;14.00;99.90;;;;;;5015165;28;20124;-84
2022/12/21 12:17:17;;;;;;;1999.90;999.90;;;16.10;99.90;;;;;;5013348;28;20731;-82
2022/12/21 12:20:05;;;;;;;1999.90;999.90;;;13.70;99.90;;;;;;5015279;28;20049;-82
2022/12/21 12:23:00;;;;;;;1999.90;999.90;;;14.10;99.90;;;;;;4996317;28;20053;-84
2022/12/21 12:25:48;;;;;;;1999.90;999.90;;;13.40;99.90;;;;;;5032972;28;20132;-84
2022/12/21 12:28:26;;;;;;;1999.90;999.90;;;14.30;99.90;;;;;;5032758;28;20398;-85
2022/12/21 12:31:09;;;;;;;1999.90;999.90;;;14.10;99.90;;;;;;5014789;28;20045;-89
2022/12/21 12:33:52;;;;;;;1999.90;999.90;;;13.40;99.90;;;;;;5015438;28;20049;-84